Time;durP1;ratioP1;P1;durP2;ratioP2;P2;SDS_P1;SDS_P2;PMS_P1;PMS_P2;Temp;Humidity;BMP_temperature;BMP_pressure;BME280_temperature;BME280_humidity;BME280_pressure;Samples;Min_cycle;Max_cycle;Signal;HPM_P1;HPM_P2
2023/09/25 00:00:30;;;;;;;7.00;6.10;;;;;;;;;;109314;1253;58299;-81
2023/09/25 00:03:16;;;;;;;9.20;6.30;;;;;;;;;;109313;1253;63380;-81
2023/09/25 00:05:43;;;;;;;9.20;7.40;;;;;;;;;;109328;1252;58323;-81
2023/09/25 00:08:09;;;;;;;9.20;6.70;;;;;;;;;;109230;1253;58915;-80
2023/09/25 00:10:36;;;;;;;8.50;7.10;;;;;;;;;;109266;1253;58773;-81
2023/09/25 00:13:02;;;;;;;8.70;7.00;;;;;;;;;;109268;1253;58183;-81
2023/09/25 00:15:29;;;;;;;10.70;7.80;;;;;;;;;;109297;1253;58605;-81
2023/09/25 00:17:55;;;;;;;9.80;7.90;;;;;;;;;;109283;1256;58263;-81
2023/09/25 00:20:24;;;;;;;10.60;7.80;;;;;;;;;;109282;1253;58229;-81
2023/09/25 00:22:50;;;;;;;9.90;7.90;;;;;;;;;;109269;1252;58379;-81
2023/09/25 00:25:20;;;;;;;9.90;8.40;;;;;;;;;;109275;1253;58158;-80
2023/09/25 00:27:46;;;;;;;10.40;8.10;;;;;;;;;;109303;1253;60755;-80
2023/09/25 00:30:14;;;;;;;12.90;7.90;;;;;;;;;;109278;1252;58958;-81
2023/09/25 00:32:40;;;;;;;9.60;8.60;;;;;;;;;;109241;1253;60576;-81
2023/09/25 00:35:10;;;;;;;9.30;8.30;;;;;;;;;;109215;1254;58789;-81
2023/09/25 00:37:37;;;;;;;10.90;8.90;;;;;;;;;;109297;1253;58120;-81
2023/09/25 00:40:17;;;;;;;10.70;7.90;;;;;;;;;;109290;1253;61397;-81
2023/09/25 00:42:48;;;;;;;9.50;8.50;;;;;;;;;;109308;1252;58309;-80
2023/09/25 00:45:15;;;;;;;9.60;8.20;;;;;;;;;;109279;1251;60922;-80
2023/09/25 00:47:42;;;;;;;14.90;7.80;;;;;;;;;;109367;1251;58293;-80
2023/09/25 00:50:09;;;;;;;11.50;8.40;;;;;;;;;;109292;1253;58888;-80
2023/09/25 00:52:36;;;;;;;10.10;7.50;;;;;;;;;;109278;1253;61017;-80
2023/09/25 00:55:04;;;;;;;9.50;7.90;;;;;;;;;;109239;1253;58359;-81
2023/09/25 00:57:30;;;;;;;9.60;7.60;;;;;;;;;;109304;1253;59856;-81
2023/09/25 00:59:57;;;;;;;9.00;7.80;;;;;;;;;;109311;1252;58162;-80
2023/09/25 01:02:24;;;;;;;11.90;8.10;;;;;;;;;;109258;1257;58777;-81
2023/09/25 01:04:51;;;;;;;10.10;8.70;;;;;;;;;;109270;1254;61430;-81
2023/09/25 01:07:17;;;;;;;8.90;8.00;;;;;;;;;;109361;1253;58229;-81
2023/09/25 01:10:02;;;;;;;9.30;8.00;;;;;;;;;;109353;1252;58717;-81
2023/09/25 01:12:29;;;;;;;10.20;7.90;;;;;;;;;;109180;1254;170181;-80
2023/09/25 01:14:55;;;;;;;10.10;8.10;;;;;;;;;;109331;1254;58139;-81
2023/09/25 01:17:21;;;;;;;9.90;8.80;;;;;;;;;;109358;1252;58803;-81
2023/09/25 01:19:48;;;;;;;9.80;8.80;;;;;;;;;;109359;1253;58568;-81
2023/09/25 01:22:14;;;;;;;11.70;9.80;;;;;;;;;;109357;1254;58834;-81
2023/09/25 01:24:40;;;;;;;10.40;9.20;;;;;;;;;;109338;1254;58323;-81
2023/09/25 01:27:07;;;;;;;10.80;9.10;;;;;;;;;;109356;1254;58139;-81
2023/09/25 01:29:34;;;;;;;11.30;9.90;;;;;;;;;;109332;1254;58294;-81
2023/09/25 01:32:01;;;;;;;10.30;8.70;;;;;;;;;;109310;1254;58834;-81
2023/09/25 01:34:27;;;;;;;10.40;8.80;;;;;;;;;;109274;1254;58208;-81
2023/09/25 01:36:54;;;;;;;11.00;9.90;;;;;;;;;;109303;1252;58925;-81
2023/09/25 01:39:20;;;;;;;10.60;9.10;;;;;;;;;;109313;1254;58483;-81
2023/09/25 01:41:47;;;;;;;10.30;8.90;;;;;;;;;;109339;1253;60924;-80
2023/09/25 01:44:13;;;;;;;13.60;9.80;;;;;;;;;;109345;1254;58173;-81
2023/09/25 01:46:40;;;;;;;15.30;9.70;;;;;;;;;;109378;1251;58310;-81
2023/09/25 01:49:07;;;;;;;15.90;11.70;;;;;;;;;;109405;1251;58577;-80
2023/09/25 01:51:33;;;;;;;15.80;11.70;;;;;;;;;;109410;1251;58161;-81
2023/09/25 01:54:01;;;;;;;13.80;10.80;;;;;;;;;;109397;1251;62120;-81
2023/09/25 01:56:27;;;;;;;13.00;10.20;;;;;;;;;;109400;1251;58475;-81
2023/09/25 01:58:54;;;;;;;13.90;11.70;;;;;;;;;;109410;1251;58880;-81
2023/09/25 02:01:20;;;;;;;13.00;10.80;;;;;;;;;;109405;1251;58279;-81
2023/09/25 02:03:47;;;;;;;17.10;12.90;;;;;;;;;;109406;1251;58533;-80
2023/09/25 02:06:14;;;;;;;13.60;10.10;;;;;;;;;;109276;1253;61769;-81
2023/09/25 02:08:40;;;;;;;14.10;9.20;;;;;;;;;;109289;1254;58891;-81
2023/09/25 02:11:07;;;;;;;14.10;11.40;;;;;;;;;;109242;1256;61045;-81
2023/09/25 02:13:33;;;;;;;13.50;11.00;;;;;;;;;;109287;1253;58483;-81
2023/09/25 02:15:59;;;;;;;15.00;12.90;;;;;;;;;;109292;1253;58932;-81
2023/09/25 02:18:26;;;;;;;18.60;14.80;;;;;;;;;;109305;1253;58299;-81
2023/09/25 02:20:52;;;;;;;23.20;16.60;;;;;;;;;;109314;1256;58214;-80
2023/09/25 02:23:19;;;;;;;24.50;17.40;;;;;;;;;;109311;1253;58209;-81
2023/09/25 02:25:45;;;;;;;25.80;17.40;;;;;;;;;;109306;1254;58606;-80
2023/09/25 02:28:11;;;;;;;22.10;16.70;;;;;;;;;;109335;1255;58452;-81
2023/09/25 02:30:38;;;;;;;21.70;13.50;;;;;;;;;;109273;1253;58315;-80
2023/09/25 02:33:04;;;;;;;15.50;12.90;;;;;;;;;;109295;1253;58799;-80
2023/09/25 02:35:31;;;;;;;14.60;10.40;;;;;;;;;;109303;1253;58255;-80
2023/09/25 02:37:58;;;;;;;17.20;10.20;;;;;;;;;;109278;1253;58825;-80
2023/09/25 02:40:25;;;;;;;12.70;8.90;;;;;;;;;;109282;1254;58654;-80
2023/09/25 02:42:51;;;;;;;12.90;8.90;;;;;;;;;;109266;1254;58924;-81
2023/09/25 02:45:17;;;;;;;13.50;9.20;;;;;;;;;;109310;1251;58636;-81
2023/09/25 02:47:44;;;;;;;11.60;10.00;;;;;;;;;;109398;1256;58905;-81
2023/09/25 02:50:11;;;;;;;10.30;8.60;;;;;;;;;;109332;1254;58630;-81
2023/09/25 02:52:37;;;;;;;14.70;9.80;;;;;;;;;;109248;1253;58859;-80
2023/09/25 02:55:04;;;;;;;10.40;9.10;;;;;;;;;;109307;1253;58606;-81
2023/09/25 02:57:30;;;;;;;13.80;9.00;;;;;;;;;;109309;1252;58373;-81
2023/09/25 02:59:56;;;;;;;10.30;8.10;;;;;;;;;;109292;1253;59351;-81
2023/09/25 03:02:25;;;;;;;12.00;10.10;;;;;;;;;;109248;1254;58299;-81
2023/09/25 03:04:52;;;;;;;15.10;11.30;;;;;;;;;;109345;1253;58511;-81
2023/09/25 03:07:18;;;;;;;12.30;10.50;;;;;;;;;;109357;1254;61827;-81
2023/09/25 03:09:44;;;;;;;16.10;11.90;;;;;;;;;;109326;1253;58283;-81
2023/09/25 03:12:11;;;;;;;16.30;12.90;;;;;;;;;;109348;1254;58964;-83
2023/09/25 03:14:38;;;;;;;15.40;11.90;;;;;;;;;;109327;1254;58203;-81
2023/09/25 03:17:04;;;;;;;12.90;11.50;;;;;;;;;;109323;1253;58894;-81
2023/09/25 03:19:35;;;;;;;17.10;11.30;;;;;;;;;;109351;1254;58643;-81
2023/09/25 03:22:01;;;;;;;18.70;11.00;;;;;;;;;;109309;1254;58844;-81
2023/09/25 03:24:28;;;;;;;13.10;10.50;;;;;;;;;;109346;1254;58841;-81
2023/09/25 03:26:55;;;;;;;15.00;10.60;;;;;;;;;;109306;1254;58464;-81
2023/09/25 03:29:21;;;;;;;13.90;9.60;;;;;;;;;;109333;1253;58157;-81
2023/09/25 03:31:48;;;;;;;19.90;9.40;;;;;;;;;;109319;1252;58507;-81
2023/09/25 03:34:14;;;;;;;12.70;9.00;;;;;;;;;;109310;1254;58697;-81
2023/09/25 03:36:41;;;;;;;16.90;13.00;;;;;;;;;;109321;1253;58849;-81
2023/09/25 03:39:08;;;;;;;14.40;10.90;;;;;;;;;;109366;1254;58968;-81
2023/09/25 03:41:34;;;;;;;9.80;8.40;;;;;;;;;;109350;1254;58249;-80
2023/09/25 03:44:01;;;;;;;19.20;10.70;;;;;;;;;;109346;1254;59125;-81
2023/09/25 03:46:27;;;;;;;17.90;11.10;;;;;;;;;;109410;1251;58323;-81
2023/09/25 03:48:54;;;;;;;17.40;11.70;;;;;;;;;;109359;1254;58268;-81
2023/09/25 03:51:20;;;;;;;15.80;12.80;;;;;;;;;;109290;1253;58820;-81
2023/09/25 03:53:46;;;;;;;16.60;12.00;;;;;;;;;;109276;1253;58766;-81
2023/09/25 03:56:13;;;;;;;16.90;13.00;;;;;;;;;;109291;1254;58904;-81
2023/09/25 03:58:39;;;;;;;18.90;13.90;;;;;;;;;;109307;1253;58900;-81
2023/09/25 04:01:05;;;;;;;14.80;11.90;;;;;;;;;;109320;1252;58564;-81
2023/09/25 04:03:32;;;;;;;13.70;11.30;;;;;;;;;;109298;1252;58968;-81
2023/09/25 04:05:58;;;;;;;17.00;12.00;;;;;;;;;;109366;1253;58184;-81
2023/09/25 04:08:24;;;;;;;13.90;10.10;;;;;;;;;;109378;1253;58219;-81
2023/09/25 04:10:51;;;;;;;15.10;9.90;;;;;;;;;;109349;1254;58683;-81
2023/09/25 04:13:21;;;;;;;13.30;10.60;;;;;;;;;;109361;1253;58308;-80
2023/09/25 04:15:47;;;;;;;11.70;10.20;;;;;;;;;;109362;1253;58226;-81
2023/09/25 04:18:13;;;;;;;19.50;10.20;;;;;;;;;;109350;1254;58736;-81
2023/09/25 04:20:43;;;;;;;13.40;9.90;;;;;;;;;;109337;1254;58198;-81
2023/09/25 04:23:09;;;;;;;18.80;11.50;;;;;;;;;;109345;1254;58358;-80
2023/09/25 04:25:36;;;;;;;12.80;9.80;;;;;;;;;;109356;1252;60532;-81
2023/09/25 04:28:02;;;;;;;16.90;9.60;;;;;;;;;;109406;1252;58456;-80
2023/09/25 04:30:29;;;;;;;11.90;9.20;;;;;;;;;;109399;1253;58468;-81
2023/09/25 04:32:55;;;;;;;13.10;9.40;;;;;;;;;;109349;1251;58302;-81
2023/09/25 04:35:21;;;;;;;15.70;9.20;;;;;;;;;;109268;1252;58231;-81
2023/09/25 04:37:48;;;;;;;12.20;9.30;;;;;;;;;;109279;1253;58241;-81
2023/09/25 04:40:30;;;;;;;12.20;9.30;;;;;;;;;;109262;1253;58911;-81
2023/09/25 04:42:57;;;;;;;11.10;8.30;;;;;;;;;;109306;1254;58264;-80
2023/09/25 04:45:23;;;;;;;14.00;9.80;;;;;;;;;;109399;1251;60957;-81
2023/09/25 04:47:53;;;;;;;12.20;9.60;;;;;;;;;;109435;1250;58847;-81
2023/09/25 04:50:20;;;;;;;14.60;10.20;;;;;;;;;;109270;1254;59392;-81
2023/09/25 04:52:46;;;;;;;14.80;9.30;;;;;;;;;;109249;1252;58754;-80
2023/09/25 04:55:12;;;;;;;12.30;9.00;;;;;;;;;;109294;1253;58172;-81
2023/09/25 04:57:40;;;;;;;14.00;8.20;;;;;;;;;;109263;1253;61756;-81
2023/09/25 05:00:26;;;;;;;16.30;8.90;;;;;;;;;;109278;1253;59013;-81
2023/09/25 05:02:55;;;;;;;15.70;9.10;;;;;;;;;;109310;1253;58249;-81
2023/09/25 05:05:22;;;;;;;15.30;9.30;;;;;;;;;;109282;1252;58202;-81
2023/09/25 05:07:50;;;;;;;14.00;8.40;;;;;;;;;;109300;1252;58468;-81
2023/09/25 05:10:17;;;;;;;12.70;8.70;;;;;;;;;;109257;1252;59564;-81
2023/09/25 05:12:43;;;;;;;10.90;8.00;;;;;;;;;;109261;1251;58416;-81
2023/09/25 05:15:10;;;;;;;10.40;8.70;;;;;;;;;;109238;1253;59590;-80
2023/09/25 05:17:37;;;;;;;10.70;8.80;;;;;;;;;;109265;1252;58945;-81
2023/09/25 05:20:10;;;;;;;10.90;9.70;;;;;;;;;;109313;1253;58194;-81
2023/09/25 05:22:37;;;;;;;12.50;9.30;;;;;;;;;;109305;1252;61114;-81
2023/09/25 05:25:05;;;;;;;11.60;9.20;;;;;;;;;;109304;1252;59076;-81
2023/09/25 05:27:32;;;;;;;13.80;8.50;;;;;;;;;;109331;1253;59751;-81
2023/09/25 05:29:58;;;;;;;12.10;8.60;;;;;;;;;;109294;1252;58437;-81
2023/09/25 05:32:25;;;;;;;11.80;9.30;;;;;;;;;;109306;1252;58956;-81
2023/09/25 05:34:51;;;;;;;13.80;8.60;;;;;;;;;;109286;1252;58281;-81
2023/09/25 05:37:17;;;;;;;11.00;8.80;;;;;;;;;;109226;1252;58373;-80
2023/09/25 05:39:44;;;;;;;11.90;8.60;;;;;;;;;;109206;1253;58217;-80
2023/09/25 05:42:11;;;;;;;13.60;10.20;;;;;;;;;;109290;1252;58581;-81
2023/09/25 05:44:37;;;;;;;13.20;9.10;;;;;;;;;;109276;1254;58917;-81
2023/09/25 05:47:03;;;;;;;13.90;9.80;;;;;;;;;;109390;1251;58228;-81
2023/09/25 05:49:30;;;;;;;13.50;9.80;;;;;;;;;;109320;1252;58150;-81
2023/09/25 05:51:57;;;;;;;11.30;8.70;;;;;;;;;;109289;1251;58870;-81
2023/09/25 05:54:23;;;;;;;15.60;9.90;;;;;;;;;;109364;1251;58885;-81
2023/09/25 05:56:50;;;;;;;16.20;9.70;;;;;;;;;;109406;1251;58756;-81
2023/09/25 05:59:16;;;;;;;11.70;8.70;;;;;;;;;;109322;1251;58554;-81
2023/09/25 06:01:43;;;;;;;13.90;9.90;;;;;;;;;;109300;1253;58248;-81
2023/09/25 06:04:10;;;;;;;16.00;10.20;;;;;;;;;;109234;1252;58803;-81
2023/09/25 06:06:36;;;;;;;14.10;9.30;;;;;;;;;;109301;1254;58204;-81
2023/09/25 06:09:08;;;;;;;12.90;8.90;;;;;;;;;;109272;1251;59870;-81
2023/09/25 06:11:35;;;;;;;12.60;9.60;;;;;;;;;;109242;1252;61942;-81
2023/09/25 06:14:02;;;;;;;20.50;14.20;;;;;;;;;;109231;1252;58310;-80
2023/09/25 06:16:28;;;;;;;25.00;15.60;;;;;;;;;;109247;1253;58267;-80
2023/09/25 06:18:54;;;;;;;38.00;21.80;;;;;;;;;;109230;1253;58439;-80
2023/09/25 06:21:21;;;;;;;18.70;14.10;;;;;;;;;;109227;1252;58280;-81
2023/09/25 06:23:48;;;;;;;13.60;10.20;;;;;;;;;;109232;1253;58410;-81
2023/09/25 06:26:15;;;;;;;13.70;10.30;;;;;;;;;;109355;1251;58486;-80
2023/09/25 06:28:42;;;;;;;10.90;8.20;;;;;;;;;;109263;1253;59625;-81
2023/09/25 06:31:08;;;;;;;12.70;8.60;;;;;;;;;;109272;1252;58645;-80
2023/09/25 06:33:35;;;;;;;12.10;7.90;;;;;;;;;;109274;1252;58599;-81
2023/09/25 06:36:02;;;;;;;10.80;8.50;;;;;;;;;;109200;1253;59564;-81
2023/09/25 06:38:28;;;;;;;11.90;7.50;;;;;;;;;;109280;1252;58897;-81
2023/09/25 06:40:55;;;;;;;8.20;6.40;;;;;;;;;;109296;1252;58819;-81
2023/09/25 06:43:21;;;;;;;9.70;7.40;;;;;;;;;;109266;1253;58866;-80
2023/09/25 06:45:48;;;;;;;12.30;7.60;;;;;;;;;;109236;1253;58548;-81
2023/09/25 06:48:14;;;;;;;9.60;7.80;;;;;;;;;;109171;1252;60151;-81
2023/09/25 06:50:41;;;;;;;11.90;7.50;;;;;;;;;;109242;1252;58886;-81
2023/09/25 06:53:07;;;;;;;9.50;7.70;;;;;;;;;;109221;1253;58300;-81
2023/09/25 06:55:34;;;;;;;11.70;6.90;;;;;;;;;;109270;1252;58270;-81
2023/09/25 06:58:00;;;;;;;9.40;6.50;;;;;;;;;;109261;1252;58338;-81
2023/09/25 07:00:26;;;;;;;9.80;6.50;;;;;;;;;;109226;1252;58992;-81
2023/09/25 07:02:53;;;;;;;11.80;7.10;;;;;;;;;;109271;1253;58397;-81
2023/09/25 07:05:19;;;;;;;8.50;7.10;;;;;;;;;;109091;1252;59908;-80
2023/09/25 07:07:47;;;;;;;19.20;10.30;;;;;;;;;;109214;1253;58902;-80
2023/09/25 07:10:14;;;;;;;13.90;8.80;;;;;;;;;;109244;1253;58471;-81
2023/09/25 07:12:40;;;;;;;19.80;13.70;;;;;;;;;;109242;1252;59583;-81
2023/09/25 07:15:07;;;;;;;17.80;11.10;;;;;;;;;;109242;1252;58596;-81
2023/09/25 07:17:34;;;;;;;15.80;10.10;;;;;;;;;;109238;1252;58718;-81
2023/09/25 07:20:00;;;;;;;15.80;10.50;;;;;;;;;;109365;1252;58317;-81
2023/09/25 07:22:27;;;;;;;12.10;8.90;;;;;;;;;;109171;1253;58852;-81
2023/09/25 07:24:54;;;;;;;11.40;9.30;;;;;;;;;;109240;1252;61656;-80
2023/09/25 07:27:21;;;;;;;13.00;7.80;;;;;;;;;;109127;1253;59268;-81
2023/09/25 07:29:47;;;;;;;9.50;7.60;;;;;;;;;;109202;1252;60849;-81
2023/09/25 07:32:14;;;;;;;11.00;6.80;;;;;;;;;;109240;1252;58806;-81
2023/09/25 07:34:40;;;;;;;9.70;7.40;;;;;;;;;;109291;1252;58722;-81
2023/09/25 07:37:07;;;;;;;15.80;7.60;;;;;;;;;;109267;1252;59176;-81
2023/09/25 07:39:40;;;;;;;7.90;6.80;;;;;;;;;;109252;1252;58474;-81
2023/09/25 07:42:07;;;;;;;9.20;6.90;;;;;;;;;;109237;1252;59003;-81
2023/09/25 07:44:36;;;;;;;11.10;6.90;;;;;;;;;;109271;1252;58412;-81
2023/09/25 07:47:06;;;;;;;10.30;7.70;;;;;;;;;;109266;1252;58365;-81
2023/09/25 07:49:38;;;;;;;9.30;7.10;;;;;;;;;;109225;1252;59798;-81
2023/09/25 07:52:15;;;;;;;13.60;7.20;;;;;;;;;;109224;1252;58863;-81
2023/09/25 07:54:44;;;;;;;10.70;7.40;;;;;;;;;;109266;1256;58813;-80
2023/09/25 07:57:20;;;;;;;11.10;7.70;;;;;;;;;;109251;1252;58229;-81
2023/09/25 07:59:46;;;;;;;8.10;6.60;;;;;;;;;;109245;1252;58522;-80
2023/09/25 08:02:17;;;;;;;8.70;7.20;;;;;;;;;;109137;1253;61086;-81
2023/09/25 08:04:44;;;;;;;12.00;7.70;;;;;;;;;;109229;1252;58919;-81
2023/09/25 08:07:11;;;;;;;10.20;8.20;;;;;;;;;;109199;1252;60284;-81
2023/09/25 08:09:38;;;;;;;9.90;7.50;;;;;;;;;;109219;1252;58175;-81
2023/09/25 08:12:05;;;;;;;9.80;8.00;;;;;;;;;;109224;1254;58900;-81
2023/09/25 08:14:32;;;;;;;8.60;7.50;;;;;;;;;;109291;1252;61112;-81
2023/09/25 08:16:58;;;;;;;10.10;7.40;;;;;;;;;;109265;1252;59005;-81
2023/09/25 08:19:24;;;;;;;9.50;7.10;;;;;;;;;;109213;1251;58888;-81
2023/09/25 08:21:51;;;;;;;8.20;7.30;;;;;;;;;;109198;1252;58751;-81
2023/09/25 08:24:18;;;;;;;11.30;7.80;;;;;;;;;;109220;1252;58542;-81
2023/09/25 08:26:46;;;;;;;14.90;7.90;;;;;;;;;;109219;1252;59037;-81
2023/09/25 08:29:16;;;;;;;11.20;6.90;;;;;;;;;;109195;1252;59016;-81
2023/09/25 08:31:43;;;;;;;10.10;7.50;;;;;;;;;;109253;1253;60680;-81
2023/09/25 08:34:10;;;;;;;11.00;8.20;;;;;;;;;;109287;1252;58305;-81
2023/09/25 08:36:37;;;;;;;9.90;7.90;;;;;;;;;;109221;1256;58278;-81
2023/09/25 08:39:03;;;;;;;11.80;7.60;;;;;;;;;;109229;1252;61745;-81
2023/09/25 08:41:30;;;;;;;11.90;8.10;;;;;;;;;;109216;1252;59043;-81
2023/09/25 08:43:57;;;;;;;9.80;6.90;;;;;;;;;;109274;1253;60624;-81
2023/09/25 08:46:24;;;;;;;15.90;9.20;;;;;;;;;;109261;1252;58473;-81
2023/09/25 08:48:52;;;;;;;13.10;9.60;;;;;;;;;;109231;1252;58519;-81
2023/09/25 08:51:19;;;;;;;16.10;11.00;;;;;;;;;;109284;1252;62005;-81
2023/09/25 08:53:45;;;;;;;14.20;11.10;;;;;;;;;;109229;1251;58245;-81
2023/09/25 08:56:14;;;;;;;15.30;11.20;;;;;;;;;;109135;1252;58840;-81
2023/09/25 08:58:40;;;;;;;;;;;;;;;;;;109208;1252;58298;-81
2023/09/25 09:01:06;;;;;;;18.70;10.40;;;;;;;;;;109250;1252;58963;-81
2023/09/25 09:03:34;;;;;;;11.30;10.00;;;;;;;;;;109245;1252;58781;-81
2023/09/25 09:06:01;;;;;;;12.40;9.60;;;;;;;;;;109247;1252;58903;-81
2023/09/25 09:08:28;;;;;;;13.10;9.90;;;;;;;;;;109195;1252;58297;-82
2023/09/25 09:10:54;;;;;;;13.80;9.50;;;;;;;;;;109157;1253;58525;-81
2023/09/25 09:13:23;;;;;;;12.10;9.50;;;;;;;;;;109246;1252;58294;-81
2023/09/25 09:15:50;;;;;;;18.90;9.30;;;;;;;;;;109281;1252;60991;-81
2023/09/25 09:18:17;;;;;;;13.00;7.80;;;;;;;;;;109215;1252;58521;-81
2023/09/25 09:20:44;;;;;;;8.50;6.90;;;;;;;;;;109166;1252;59455;-81
2023/09/25 09:23:10;;;;;;;12.40;7.20;;;;;;;;;;109152;1253;58373;-81
2023/09/25 09:25:37;;;;;;;8.40;7.50;;;;;;;;;;109146;1252;58793;-81
2023/09/25 09:28:03;;;;;;;27.40;9.60;;;;;;;;;;109153;1255;58222;-81
2023/09/25 09:30:30;;;;;;;10.40;8.10;;;;;;;;;;109241;1253;58894;-81
2023/09/25 09:32:57;;;;;;;14.90;8.00;;;;;;;;;;109254;1252;58331;-81
2023/09/25 09:35:25;;;;;;;10.20;7.80;;;;;;;;;;109345;1253;58254;-81
2023/09/25 09:37:54;;;;;;;10.10;8.10;;;;;;;;;;109401;1253;58569;-81
2023/09/25 09:40:21;;;;;;;10.30;6.50;;;;;;;;;;109374;1252;59662;-81
2023/09/25 09:42:47;;;;;;;15.30;7.80;;;;;;;;;;109290;1252;58948;-81
2023/09/25 09:45:15;;;;;;;9.20;6.90;;;;;;;;;;109229;1252;60472;-81
2023/09/25 09:47:43;;;;;;;8.70;6.30;;;;;;;;;;109233;1252;58760;-81
2023/09/25 09:50:10;;;;;;;9.10;6.50;;;;;;;;;;109229;1252;58776;-81
2023/09/25 09:52:39;;;;;;;10.30;6.90;;;;;;;;;;109244;1252;60773;-81
2023/09/25 09:55:06;;;;;;;9.40;6.80;;;;;;;;;;109272;1252;59272;-81
2023/09/25 09:57:32;;;;;;;12.10;7.20;;;;;;;;;;109192;1252;59624;-81
2023/09/25 09:59:58;;;;;;;14.90;7.70;;;;;;;;;;109210;1253;58987;-81
2023/09/25 10:02:28;;;;;;;15.40;7.00;;;;;;;;;;109320;1252;58521;-81
2023/09/25 10:04:55;;;;;;;10.10;7.30;;;;;;;;;;109128;1253;61581;-81
2023/09/25 10:07:22;;;;;;;12.30;6.90;;;;;;;;;;109307;1252;58596;-81
2023/09/25 10:10:02;;;;;;;12.30;7.50;;;;;;;;;;109199;1252;58290;-81
2023/09/25 10:12:50;;;;;;;11.70;7.00;;;;;;;;;;109216;1253;58286;-81
2023/09/25 10:15:17;;;;;;;15.10;7.90;;;;;;;;;;109219;1253;58612;-81
2023/09/25 10:17:45;;;;;;;11.30;7.90;;;;;;;;;;109249;1252;61052;-81
2023/09/25 10:20:30;;;;;;;12.20;7.40;;;;;;;;;;109220;1252;58607;-81
2023/09/25 10:23:05;;;;;;;14.70;10.70;;;;;;;;;;109254;1252;58399;-81
2023/09/25 10:25:32;;;;;;;14.50;10.90;;;;;;;;;;109249;1252;58721;-81
2023/09/25 10:27:58;;;;;;;10.30;8.90;;;;;;;;;;109239;1252;58432;-81
2023/09/25 10:30:25;;;;;;;13.30;9.80;;;;;;;;;;109245;1252;58436;-81
2023/09/25 10:32:52;;;;;;;10.60;8.70;;;;;;;;;;109229;1252;58813;-81
2023/09/25 10:35:37;;;;;;;12.80;8.10;;;;;;;;;;109184;1252;58756;-82
2023/09/25 10:38:08;;;;;;;9.70;7.80;;;;;;;;;;109278;1252;59069;-81
2023/09/25 10:40:35;;;;;;;18.60;8.50;;;;;;;;;;109259;1252;58805;-81
2023/09/25 10:43:03;;;;;;;9.30;7.40;;;;;;;;;;109280;1252;60902;-82
2023/09/25 10:45:30;;;;;;;10.60;8.70;;;;;;;;;;109323;1252;59307;-82
2023/09/25 10:47:56;;;;;;;11.60;6.90;;;;;;;;;;109224;1252;59480;-81
2023/09/25 10:50:23;;;;;;;9.10;6.80;;;;;;;;;;109252;1252;58184;-81
2023/09/25 10:52:49;;;;;;;7.60;5.70;;;;;;;;;;109228;1254;58280;-82
2023/09/25 10:55:15;;;;;;;6.80;5.30;;;;;;;;;;109282;1252;58378;-81
2023/09/25 10:57:42;;;;;;;7.90;5.90;;;;;;;;;;109263;1253;58610;-81
2023/09/25 11:00:15;;;;;;;7.40;5.30;;;;;;;;;;109276;1252;58810;-81
2023/09/25 11:02:42;;;;;;;10.30;5.40;;;;;;;;;;109235;1252;58203;-81
2023/09/25 11:05:09;;;;;;;11.80;6.30;;;;;;;;;;109257;1253;58593;-82
2023/09/25 11:07:39;;;;;;;7.30;5.60;;;;;;;;;;109160;1253;59961;-81
2023/09/25 11:10:07;;;;;;;12.00;6.00;;;;;;;;;;109189;1253;59404;-82
2023/09/25 11:12:34;;;;;;;11.40;6.50;;;;;;;;;;109254;1253;59714;-81
2023/09/25 11:15:00;;;;;;;8.50;6.30;;;;;;;;;;109260;1253;58831;-82
2023/09/25 11:17:26;;;;;;;10.20;7.00;;;;;;;;;;109306;1252;58607;-82
2023/09/25 11:19:53;;;;;;;13.80;7.30;;;;;;;;;;109213;1252;58907;-81
2023/09/25 11:22:20;;;;;;;12.80;7.10;;;;;;;;;;109244;1252;58874;-82
2023/09/25 11:24:53;;;;;;;9.50;6.30;;;;;;;;;;109240;1252;60369;-81
2023/09/25 11:27:19;;;;;;;7.50;6.30;;;;;;;;;;109256;1253;58272;-81
2023/09/25 11:29:52;;;;;;;10.90;6.30;;;;;;;;;;109265;1253;58303;-81
2023/09/25 11:32:18;;;;;;;13.90;5.90;;;;;;;;;;109248;1252;61175;-81
2023/09/25 11:34:45;;;;;;;7.10;5.40;;;;;;;;;;109248;1252;58848;-81
2023/09/25 11:37:19;;;;;;;7.00;5.30;;;;;;;;;;109251;1252;59760;-81
2023/09/25 11:39:46;;;;;;;8.70;5.70;;;;;;;;;;109249;1253;58592;-81
2023/09/25 11:42:13;;;;;;;10.30;7.80;;;;;;;;;;109252;1252;58559;-81
2023/09/25 11:44:39;;;;;;;6.70;5.60;;;;;;;;;;109314;1253;58475;-82
2023/09/25 11:47:06;;;;;;;9.70;5.60;;;;;;;;;;109277;1252;58201;-81
2023/09/25 11:49:32;;;;;;;10.20;5.80;;;;;;;;;;109264;1253;60361;-81
2023/09/25 11:51:58;;;;;;;9.80;5.60;;;;;;;;;;109265;1252;58978;-82
2023/09/25 11:54:25;;;;;;;9.30;5.60;;;;;;;;;;109254;1252;59628;-81
2023/09/25 11:56:52;;;;;;;9.70;6.00;;;;;;;;;;109231;1253;58293;-81
2023/09/25 11:59:18;;;;;;;8.10;6.10;;;;;;;;;;109249;1257;58834;-82
2023/09/25 12:01:45;;;;;;;6.60;5.50;;;;;;;;;;109280;1253;58480;-81
2023/09/25 12:04:12;;;;;;;8.40;5.50;;;;;;;;;;109271;1253;58548;-81
2023/09/25 12:06:39;;;;;;;11.20;6.10;;;;;;;;;;109240;1253;59065;-81
2023/09/25 12:09:11;;;;;;;9.90;6.00;;;;;;;;;;109189;1256;62194;-81
2023/09/25 12:11:38;;;;;;;8.00;5.50;;;;;;;;;;109057;1252;58528;-81
2023/09/25 12:14:04;;;;;;;9.30;6.10;;;;;;;;;;109146;1252;59388;-81
2023/09/25 12:16:31;;;;;;;9.20;6.00;;;;;;;;;;109252;1252;58417;-81
2023/09/25 12:18:57;;;;;;;13.70;6.80;;;;;;;;;;109295;1253;58163;-82
2023/09/25 12:21:24;;;;;;;15.70;6.80;;;;;;;;;;109322;1252;59071;-81
2023/09/25 12:23:50;;;;;;;13.30;6.40;;;;;;;;;;109268;1252;58716;-81
2023/09/25 12:26:17;;;;;;;9.70;6.60;;;;;;;;;;109183;1253;58295;-81
2023/09/25 12:28:43;;;;;;;11.60;7.20;;;;;;;;;;109149;1252;58218;-81
2023/09/25 12:31:10;;;;;;;10.80;6.90;;;;;;;;;;109197;1252;58641;-81
2023/09/25 12:33:37;;;;;;;9.90;6.50;;;;;;;;;;109179;1252;61334;-81
2023/09/25 12:36:04;;;;;;;13.00;7.50;;;;;;;;;;109182;1252;58855;-82
2023/09/25 12:38:30;;;;;;;10.40;7.20;;;;;;;;;;109178;1253;58342;-81
2023/09/25 12:40:57;;;;;;;14.90;7.40;;;;;;;;;;109207;1253;58802;-81
2023/09/25 12:43:23;;;;;;;9.70;7.60;;;;;;;;;;109210;1252;58297;-81
2023/09/25 12:45:51;;;;;;;9.20;6.80;;;;;;;;;;109216;1252;58732;-81
2023/09/25 12:48:18;;;;;;;12.00;6.70;;;;;;;;;;109199;1252;58455;-82
2023/09/25 12:50:44;;;;;;;10.20;6.90;;;;;;;;;;109221;1252;59669;-81
2023/09/25 12:53:11;;;;;;;10.30;7.80;;;;;;;;;;109245;1252;58228;-81
2023/09/25 12:55:37;;;;;;;16.70;7.90;;;;;;;;;;109251;1253;59166;-81
2023/09/25 12:58:04;;;;;;;10.60;6.70;;;;;;;;;;109219;1253;58949;-81
2023/09/25 13:00:30;;;;;;;10.90;6.60;;;;;;;;;;109227;1253;58221;-81
2023/09/25 13:02:57;;;;;;;10.20;6.10;;;;;;;;;;109190;1253;58193;-81
2023/09/25 13:05:23;;;;;;;11.20;6.60;;;;;;;;;;109241;1253;58653;-81
2023/09/25 13:07:49;;;;;;;14.20;7.70;;;;;;;;;;109213;1253;58310;-81
2023/09/25 13:10:16;;;;;;;10.70;7.00;;;;;;;;;;109244;1252;59130;-81
2023/09/25 13:12:42;;;;;;;14.80;6.80;;;;;;;;;;109114;1253;165882;-81
2023/09/25 13:15:10;;;;;;;10.10;6.70;;;;;;;;;;109243;1253;58249;-81
2023/09/25 13:17:36;;;;;;;12.20;7.80;;;;;;;;;;109218;1252;58409;-81
2023/09/25 13:20:07;;;;;;;14.90;9.30;;;;;;;;;;109195;1252;58317;-81
2023/09/25 13:22:37;;;;;;;19.10;7.20;;;;;;;;;;109212;1253;60229;-82
2023/09/25 13:25:04;;;;;;;9.60;7.20;;;;;;;;;;109230;1251;58664;-81
2023/09/25 13:27:30;;;;;;;15.60;7.50;;;;;;;;;;109192;1253;60418;-82
2023/09/25 13:29:56;;;;;;;14.20;7.70;;;;;;;;;;109202;1253;58463;-81
2023/09/25 13:32:23;;;;;;;14.10;7.70;;;;;;;;;;109284;1252;58953;-81
2023/09/25 13:34:50;;;;;;;11.80;7.90;;;;;;;;;;109413;1253;58533;-81
2023/09/25 13:37:17;;;;;;;14.40;8.00;;;;;;;;;;109387;1253;59788;-81
2023/09/25 13:39:43;;;;;;;16.10;8.50;;;;;;;;;;109221;1253;58550;-81
2023/09/25 13:42:11;;;;;;;15.20;6.70;;;;;;;;;;109254;1252;58667;-81
2023/09/25 13:44:37;;;;;;;10.40;7.10;;;;;;;;;;109242;1253;58929;-81
2023/09/25 13:47:04;;;;;;;10.70;7.10;;;;;;;;;;109260;1253;58793;-81
2023/09/25 13:49:30;;;;;;;9.40;8.00;;;;;;;;;;109244;1252;58574;-81
2023/09/25 13:51:57;;;;;;;9.40;7.30;;;;;;;;;;109196;1253;58725;-81
2023/09/25 13:54:23;;;;;;;13.00;7.60;;;;;;;;;;109238;1253;58238;-81
2023/09/25 13:56:49;;;;;;;12.50;8.40;;;;;;;;;;109216;1253;58636;-81
2023/09/25 13:59:17;;;;;;;9.70;7.40;;;;;;;;;;109150;1252;58904;-81
2023/09/25 14:01:46;;;;;;;23.50;8.60;;;;;;;;;;109250;1252;58526;-81
2023/09/25 14:04:13;;;;;;;14.70;8.60;;;;;;;;;;109241;1253;59936;-81
2023/09/25 14:06:39;;;;;;;11.60;7.80;;;;;;;;;;109257;1252;58931;-81
2023/09/25 14:09:08;;;;;;;14.10;9.00;;;;;;;;;;109260;1252;58275;-81
2023/09/25 14:11:35;;;;;;;;;;;;;;;;;;109309;1253;60053;-81
2023/09/25 14:14:02;;;;;;;14.10;7.80;;;;;;;;;;109190;1252;59769;-81
2023/09/25 14:16:28;;;;;;;13.90;8.20;;;;;;;;;;109226;1253;59795;-81
2023/09/25 14:18:55;;;;;;;15.60;8.40;;;;;;;;;;109190;1252;58740;-81